Time;durP1;ratioP1;P1;durP2;ratioP2;P2;SDS_P1;SDS_P2;PMS_P1;PMS_P2;Temp;Humidity;BMP_temperature;BMP_pressure;BME280_temperature;BME280_humidity;BME280_pressure;Samples;Min_cycle;Max_cycle;Signal;HPM_P1;HPM_P2
2022/11/26 00:00:46;;;;;;;52.30;25.27;;;7.20;99.90;;;;;;5063209;28;20048;-79
2022/11/26 00:03:13;;;;;;;71.55;37.15;;;7.20;99.90;;;;;;5066506;28;20445;-78
2022/11/26 00:05:42;;;;;;;26.40;8.90;;;7.30;99.90;;;;;;5065375;28;20040;-78
2022/11/26 00:08:32;;;;;;;15.77;6.13;;;7.30;99.90;;;;;;5068902;28;20105;-78
2022/11/26 00:10:58;;;;;;;16.50;6.93;;;7.30;99.90;;;;;;5067639;28;20033;-78
2022/11/26 00:13:26;;;;;;;19.67;7.20;;;7.30;99.90;;;;;;5077077;28;20263;-77
2022/11/26 00:15:53;;;;;;;9.82;5.47;;;7.20;99.90;;;;;;5062282;28;20040;-78
2022/11/26 00:18:22;;;;;;;12.30;5.40;;;7.20;99.90;;;;;;5070198;28;20051;-77
2022/11/26 00:20:53;;;;;;;18.48;7.55;;;7.20;99.90;;;;;;5059139;28;20021;-77
2022/11/26 00:23:25;;;;;;;80.10;36.13;;;7.30;99.90;;;;;;5060348;28;20032;-78
2022/11/26 00:26:02;;;;;;;99.65;46.58;;;7.30;99.90;;;;;;5068276;28;20053;-77
2022/11/26 00:28:35;;;;;;;20.23;6.35;;;7.40;99.90;;;;;;5061613;28;20111;-76
2022/11/26 00:31:04;;;;;;;40.50;18.30;;;7.30;99.90;;;;;;5067593;28;20029;-78
2022/11/26 00:33:31;;;;;;;7.93;4.50;;;7.30;99.90;;;;;;5074834;28;20024;-78
2022/11/26 00:36:00;;;;;;;10.07;4.30;;;7.30;99.90;;;;;;5063785;28;20491;-77
2022/11/26 00:38:28;;;;;;;18.35;7.50;;;7.30;99.90;;;;;;5073059;28;20377;-77
2022/11/26 00:40:54;;;;;;;44.83;20.60;;;7.20;99.90;;;;;;5065808;28;20029;-78
2022/11/26 00:43:20;;;;;;;10.70;5.00;;;7.10;99.90;;;;;;5073182;28;20074;-78
2022/11/26 00:45:49;;;;;;;39.88;19.65;;;7.10;99.90;;;;;;5069932;28;20029;-78
2022/11/26 00:48:15;;;;;;;42.70;22.75;;;7.10;99.90;;;;;;5068575;28;20100;-77
2022/11/26 00:50:45;;;;;;;24.33;9.68;;;7.10;99.90;;;;;;5066234;28;20030;-78
2022/11/26 00:53:13;;;;;;;20.58;8.80;;;7.00;99.90;;;;;;5067165;28;20037;-77
2022/11/26 00:55:43;;;;;;;12.30;5.38;;;7.00;99.90;;;;;;5064430;28;20031;-77
2022/11/26 00:58:29;;;;;;;19.75;5.32;;;6.90;99.90;;;;;;5074543;28;20370;-77
2022/11/26 01:00:57;;;;;;;14.07;6.68;;;6.90;99.90;;;;;;5067594;28;20075;-79
2022/11/26 01:03:24;;;;;;;8.25;4.50;;;6.90;99.90;;;;;;5066160;28;20044;-78
2022/11/26 01:05:52;;;;;;;12.75;4.93;;;6.90;99.90;;;;;;5064885;28;20079;-77
2022/11/26 01:08:29;;;;;;;7.82;4.90;;;6.90;99.90;;;;;;5067946;28;20027;-79
2022/11/26 01:10:55;;;;;;;78.97;37.47;;;6.80;99.90;;;;;;5065451;28;20024;-79
2022/11/26 01:13:20;;;;;;;58.25;26.38;;;6.80;99.90;;;;;;5068755;28;20032;-77
2022/11/26 01:15:46;;;;;;;20.92;6.80;;;6.80;99.90;;;;;;5059236;28;21437;-77
2022/11/26 01:18:15;;;;;;;12.23;5.25;;;6.70;99.90;;;;;;5069643;28;20020;-77
2022/11/26 01:20:42;;;;;;;12.50;7.10;;;6.70;99.90;;;;;;5064937;28;20024;-77
2022/11/26 01:23:12;;;;;;;21.15;9.82;;;6.60;99.90;;;;;;5069408;28;20020;-77
2022/11/26 01:25:39;;;;;;;;;;;6.60;99.90;;;;;;5068878;28;20446;-77
2022/11/26 01:28:09;;;;;;;23.85;10.38;;;6.50;99.90;;;;;;5071249;28;19970;-77
2022/11/26 01:30:35;;;;;;;19.20;10.20;;;6.40;99.90;;;;;;5067251;28;20024;-77
2022/11/26 01:33:00;;;;;;;26.27;12.52;;;6.30;99.90;;;;;;5064210;28;20031;-77
2022/11/26 01:35:27;;;;;;;18.92;9.65;;;6.20;99.90;;;;;;5065009;28;20040;-77
2022/11/26 01:37:53;;;;;;;11.50;7.28;;;6.10;99.90;;;;;;5072122;28;20047;-77
2022/11/26 01:40:25;;;;;;;17.45;5.38;;;6.00;99.90;;;;;;5073845;28;20025;-77
2022/11/26 01:43:25;;;;;;;11.43;5.30;;;5.90;99.90;;;;;;5090496;28;20026;-77
2022/11/26 01:45:51;;;;;;;12.33;6.17;;;5.90;99.90;;;;;;5073028;28;20538;-77
2022/11/26 01:48:23;;;;;;;8.88;4.65;;;5.80;99.90;;;;;;5073532;28;20275;-77
2022/11/26 01:51:06;;;;;;;102.43;52.28;;;5.80;99.90;;;;;;5071330;28;20024;-77
2022/11/26 01:54:01;;;;;;;39.63;17.40;;;5.80;99.90;;;;;;5061912;28;20021;-77
2022/11/26 01:56:37;;;;;;;25.67;9.48;;;5.70;99.90;;;;;;5068850;28;20566;-76
2022/11/26 01:59:28;;;;;;;25.85;11.98;;;5.60;99.90;;;;;;5062279;28;20055;-76
2022/11/26 02:01:57;;;;;;;19.23;6.10;;;5.60;99.90;;;;;;5063115;28;20033;-77
2022/11/26 02:04:38;;;;;;;19.58;7.80;;;5.60;99.90;;;;;;5070944;28;20025;-77
2022/11/26 02:07:04;;;;;;;235.77;119.90;;;5.50;99.90;;;;;;5064795;28;20021;-77
2022/11/26 02:09:30;;;;;;;20.25;9.50;;;5.50;99.90;;;;;;5072216;28;20046;-76
2022/11/26 02:11:56;;;;;;;44.97;20.70;;;5.50;99.90;;;;;;5070062;28;20021;-76
2022/11/26 02:14:30;;;;;;;22.48;10.20;;;5.40;99.90;;;;;;5076605;28;20401;-76
2022/11/26 02:17:15;;;;;;;97.80;58.95;;;5.40;99.90;;;;;;5068251;28;20021;-76
2022/11/26 02:20:15;;;;;;;26.77;16.40;;;5.30;99.90;;;;;;5064801;28;20024;-77
2022/11/26 02:23:03;;;;;;;33.20;19.87;;;5.20;99.90;;;;;;5070808;28;20034;-76
2022/11/26 02:26:06;;;;;;;19.52;11.02;;;5.20;99.90;;;;;;5065437;28;20294;-76
2022/11/26 02:29:00;;;;;;;88.18;52.78;;;5.20;99.90;;;;;;5083259;28;20043;-77
2022/11/26 02:31:41;;;;;;;18.65;10.52;;;5.10;99.90;;;;;;5071760;28;20047;-77
2022/11/26 02:34:16;;;;;;;;;;;5.10;99.90;;;;;;5070096;28;20025;-76
2022/11/26 02:36:56;;;;;;;11.10;5.97;;;5.10;99.90;;;;;;5074879;28;19908;-77
2022/11/26 02:39:24;;;;;;;22.63;7.80;;;5.10;99.90;;;;;;5068388;28;20032;-77
2022/11/26 02:41:53;;;;;;;14.75;7.38;;;5.20;99.90;;;;;;5086335;28;20099;-77
2022/11/26 02:44:24;;;;;;;21.67;9.80;;;5.20;99.90;;;;;;5069089;28;20018;-77
2022/11/26 02:46:55;;;;;;;23.15;12.23;;;5.10;99.90;;;;;;5074635;28;20021;-77
2022/11/26 02:49:22;;;;;;;19.65;11.88;;;5.20;99.90;;;;;;5076267;28;20029;-77
2022/11/26 02:51:53;;;;;;;20.75;10.48;;;5.20;99.90;;;;;;5075070;28;20021;-77
2022/11/26 02:54:20;;;;;;;11.00;6.55;;;5.10;99.90;;;;;;5070213;28;20040;-76
2022/11/26 02:56:48;;;;;;;18.92;6.03;;;5.10;99.90;;;;;;5071546;28;20032;-76
2022/11/26 02:59:14;;;;;;;15.13;6.20;;;5.00;99.90;;;;;;5062121;28;20392;-77
2022/11/26 03:01:59;;;;;;;27.38;11.48;;;5.00;99.90;;;;;;5071228;28;20129;-77
2022/11/26 03:04:31;;;;;;;21.27;5.65;;;5.00;99.90;;;;;;5064750;28;20378;-77
2022/11/26 03:07:00;;;;;;;22.35;9.20;;;5.00;99.90;;;;;;5069365;28;20503;-76
2022/11/26 03:09:26;;;;;;;22.85;6.93;;;5.00;99.90;;;;;;5061910;28;20389;-76
2022/11/26 03:11:51;;;;;;;21.90;11.77;;;4.90;99.90;;;;;;5073114;28;20131;-77
2022/11/26 03:14:17;;;;;;;32.63;19.08;;;4.90;99.90;;;;;;5062826;28;20024;-77
2022/11/26 03:16:43;;;;;;;41.42;19.38;;;4.90;99.90;;;;;;5066883;28;20060;-76
2022/11/26 03:19:09;;;;;;;235.30;108.95;;;4.90;99.90;;;;;;5073284;28;20078;-77
2022/11/26 03:21:34;;;;;;;60.85;25.98;;;4.90;99.90;;;;;;5072018;28;20033;-76
2022/11/26 03:24:00;;;;;;;97.88;42.80;;;4.80;99.90;;;;;;5071253;28;20497;-77
2022/11/26 03:26:26;;;;;;;46.17;18.08;;;4.80;99.90;;;;;;5069020;28;20021;-76
2022/11/26 03:28:52;;;;;;;26.13;11.48;;;4.80;99.90;;;;;;5070385;28;20028;-77
2022/11/26 03:31:18;;;;;;;16.25;6.65;;;4.70;99.90;;;;;;5070460;28;20040;-77
2022/11/26 03:33:43;;;;;;;67.22;23.60;;;4.70;99.90;;;;;;5070520;28;20021;-77
2022/11/26 03:36:09;;;;;;;30.92;11.70;;;4.70;99.90;;;;;;5067243;28;20080;-77
2022/11/26 03:38:35;;;;;;;202.43;71.45;;;4.70;99.90;;;;;;5066444;28;20043;-77
2022/11/26 03:41:03;;;;;;;52.15;19.25;;;4.70;99.90;;;;;;5064254;28;20029;-76
2022/11/26 03:43:28;;;;;;;33.92;11.10;;;4.70;99.90;;;;;;5070088;28;20028;-77
2022/11/26 03:45:54;;;;;;;27.33;8.10;;;4.70;99.90;;;;;;5062873;28;20485;-77
2022/11/26 03:48:20;;;;;;;15.40;6.70;;;4.60;99.90;;;;;;5064829;28;20024;-77
2022/11/26 03:50:46;;;;;;;14.05;8.52;;;4.70;99.90;;;;;;5065976;28;20386;-77
2022/11/26 03:53:12;;;;;;;36.78;20.85;;;4.60;99.90;;;;;;5071163;28;20024;-76
2022/11/26 03:55:38;;;;;;;17.70;7.25;;;4.60;99.90;;;;;;5063689;28;20024;-77
2022/11/26 03:58:03;;;;;;;8.35;5.65;;;4.60;99.90;;;;;;5063360;28;20040;-77
2022/11/26 04:00:29;;;;;;;17.38;6.30;;;4.60;99.90;;;;;;5069279;28;20040;-77
2022/11/26 04:02:55;;;;;;;23.05;11.43;;;4.60;99.90;;;;;;5068910;28;20501;-76
2022/11/26 04:05:21;;;;;;;20.35;12.20;;;4.50;99.90;;;;;;5069523;28;20091;-76
2022/11/26 04:07:46;;;;;;;24.55;11.30;;;4.60;99.90;;;;;;5070213;28;20027;-76
2022/11/26 04:10:12;;;;;;;28.70;11.90;;;4.50;99.90;;;;;;5061912;28;20025;-76
2022/11/26 04:12:38;;;;;;;19.38;12.18;;;4.50;99.90;;;;;;5076927;28;20035;-76
2022/11/26 04:15:04;;;;;;;12.32;6.72;;;4.40;99.90;;;;;;5062644;28;20554;-77
2022/11/26 04:17:30;;;;;;;18.65;6.88;;;4.40;99.90;;;;;;5074600;28;20025;-76
2022/11/26 04:19:56;;;;;;;10.88;6.63;;;4.40;99.90;;;;;;5064810;28;20017;-77
2022/11/26 04:22:22;;;;;;;16.02;6.90;;;4.40;99.90;;;;;;5070905;28;20071;-76
2022/11/26 04:24:48;;;;;;;12.07;6.30;;;4.50;99.90;;;;;;5066359;28;20505;-76
2022/11/26 04:27:13;;;;;;;17.10;7.00;;;4.40;99.90;;;;;;5072396;28;20032;-76
2022/11/26 04:29:39;;;;;;;11.77;7.47;;;4.40;99.90;;;;;;5065416;28;20107;-76
2022/11/26 04:32:05;;;;;;;16.67;6.70;;;4.40;99.90;;;;;;5072595;28;20020;-76
2022/11/26 04:34:31;;;;;;;12.27;6.95;;;4.30;99.90;;;;;;5066495;28;20033;-77
2022/11/26 04:36:57;;;;;;;11.18;6.43;;;4.30;99.90;;;;;;5072862;28;20043;-76
2022/11/26 04:39:23;;;;;;;9.15;5.78;;;4.30;99.90;;;;;;5070146;28;20509;-76
2022/11/26 04:41:48;;;;;;;13.35;5.80;;;4.30;99.90;;;;;;5063193;28;20058;-77
2022/11/26 04:44:14;;;;;;;10.13;6.00;;;4.30;99.90;;;;;;5057823;28;20029;-77
2022/11/26 04:46:40;;;;;;;14.52;6.47;;;4.30;99.90;;;;;;5063158;28;20080;-76
2022/11/26 04:49:06;;;;;;;18.23;5.93;;;4.40;99.90;;;;;;5068955;28;20053;-76
2022/11/26 04:51:32;;;;;;;13.35;6.28;;;4.40;99.90;;;;;;5058824;28;20507;-77
2022/11/26 04:53:58;;;;;;;15.98;6.90;;;4.50;99.90;;;;;;5069796;28;20025;-77
2022/11/26 04:56:23;;;;;;;11.45;5.85;;;4.50;99.90;;;;;;5061827;28;20123;-77
2022/11/26 04:58:49;;;;;;;9.50;5.70;;;4.50;99.90;;;;;;5069852;28;20017;-77
2022/11/26 05:01:15;;;;;;;18.05;6.47;;;4.50;99.90;;;;;;5070053;28;20507;-76
2022/11/26 05:03:41;;;;;;;13.60;5.93;;;4.50;99.90;;;;;;5068875;28;20019;-76
2022/11/26 05:06:07;;;;;;;15.45;5.75;;;4.50;99.90;;;;;;5071919;28;20048;-76
2022/11/26 05:08:33;;;;;;;11.65;6.00;;;4.50;99.90;;;;;;5070626;28;20024;-76
2022/11/26 05:11:01;;;;;;;10.90;5.88;;;4.50;99.90;;;;;;5071149;28;20086;-77
2022/11/26 05:13:28;;;;;;;12.60;5.85;;;4.60;99.90;;;;;;5066670;28;20012;-77
2022/11/26 05:15:54;;;;;;;15.20;6.22;;;4.60;99.90;;;;;;5070700;28;20032;-76
2022/11/26 05:18:20;;;;;;;14.85;6.43;;;4.60;99.90;;;;;;5076640;28;20029;-76
2022/11/26 05:20:46;;;;;;;10.55;6.30;;;4.60;99.90;;;;;;5070825;28;20025;-76
2022/11/26 05:23:13;;;;;;;18.35;6.82;;;4.70;99.90;;;;;;5075556;28;20100;-77
2022/11/26 05:25:38;;;;;;;15.38;6.30;;;4.60;99.90;;;;;;5068869;28;20044;-76
2022/11/26 05:28:04;;;;;;;8.90;6.13;;;4.70;99.90;;;;;;5072425;28;20024;-76
2022/11/26 05:30:30;;;;;;;19.83;6.72;;;4.70;99.90;;;;;;5069140;28;20036;-77
2022/11/26 05:32:56;;;;;;;17.55;6.38;;;4.70;99.90;;;;;;5076870;28;20027;-77
2022/11/26 05:35:22;;;;;;;13.77;5.75;;;4.70;99.90;;;;;;5068294;28;20037;-76
2022/11/26 05:37:47;;;;;;;14.10;6.53;;;4.70;99.90;;;;;;5076025;28;20023;-77
2022/11/26 05:40:13;;;;;;;21.73;7.03;;;4.70;99.90;;;;;;5074142;28;20017;-77
2022/11/26 05:42:39;;;;;;;12.07;7.22;;;4.60;99.90;;;;;;5074911;28;20028;-77
2022/11/26 05:45:06;;;;;;;15.48;7.43;;;4.60;99.90;;;;;;5075177;28;20112;-76
2022/11/26 05:47:32;;;;;;;9.57;6.45;;;4.50;99.90;;;;;;5068917;28;20036;-76
2022/11/26 05:49:58;;;;;;;12.88;6.85;;;4.50;99.90;;;;;;5073083;28;20025;-77
2022/11/26 05:52:24;;;;;;;15.20;6.70;;;4.50;99.90;;;;;;5062491;28;20032;-76
2022/11/26 05:54:49;;;;;;;15.73;6.97;;;4.60;99.90;;;;;;5072853;28;20036;-77
2022/11/26 05:57:17;;;;;;;12.68;6.75;;;4.50;99.90;;;;;;5073096;28;20392;-76
2022/11/26 05:59:43;;;;;;;14.65;9.70;;;4.50;99.90;;;;;;5070373;28;20040;-77
2022/11/26 06:02:08;;;;;;;15.70;10.02;;;4.40;99.90;;;;;;5064867;28;20025;-77
2022/11/26 06:04:34;;;;;;;27.23;11.00;;;4.40;99.90;;;;;;5068240;28;20036;-77
2022/11/26 06:07:00;;;;;;;21.85;10.10;;;4.40;99.90;;;;;;5074377;28;20120;-76
2022/11/26 06:09:26;;;;;;;16.02;10.50;;;4.50;99.90;;;;;;5066218;28;20020;-77
2022/11/26 06:11:52;;;;;;;19.92;8.02;;;4.50;99.90;;;;;;5074697;28;20025;-77
2022/11/26 06:14:18;;;;;;;12.90;8.32;;;4.50;99.90;;;;;;5065741;28;20036;-77
2022/11/26 06:16:44;;;;;;;13.82;8.45;;;4.50;99.90;;;;;;5074543;28;20112;-77
2022/11/26 06:19:10;;;;;;;14.25;8.65;;;4.50;99.90;;;;;;5061897;28;20016;-77
2022/11/26 06:21:36;;;;;;;11.13;7.95;;;4.50;99.90;;;;;;5066640;28;20032;-76
2022/11/26 06:24:02;;;;;;;10.93;8.30;;;4.50;99.90;;;;;;5072524;28;20037;-79
2022/11/26 06:26:28;;;;;;;14.13;9.10;;;4.50;99.90;;;;;;5071896;28;20025;-78
2022/11/26 06:28:54;;;;;;;12.65;8.10;;;4.50;99.90;;;;;;5071324;28;20072;-76
2022/11/26 06:31:20;;;;;;;13.65;8.38;;;4.40;99.90;;;;;;5085557;28;20047;-76
2022/11/26 06:33:46;;;;;;;16.95;8.00;;;4.50;99.90;;;;;;5073129;28;20605;-76
2022/11/26 06:36:11;;;;;;;12.82;8.77;;;4.50;99.90;;;;;;5069963;28;20561;-76
2022/11/26 06:38:37;;;;;;;16.33;8.90;;;4.50;99.90;;;;;;5071034;28;20052;-77
2022/11/26 06:41:06;;;;;;;16.08;7.45;;;4.50;99.90;;;;;;5065950;28;20021;-77
2022/11/26 06:43:33;;;;;;;13.00;9.23;;;4.50;99.90;;;;;;5070347;28;20052;-76
2022/11/26 06:46:07;;;;;;;16.95;8.77;;;4.60;99.90;;;;;;5065736;28;20085;-76
2022/11/26 06:48:33;;;;;;;14.95;8.45;;;4.60;99.90;;;;;;5066684;28;20028;-77
2022/11/26 06:51:07;;;;;;;20.63;9.25;;;4.60;99.90;;;;;;5063447;28;20033;-77
2022/11/26 06:53:33;;;;;;;32.63;13.60;;;4.70;99.90;;;;;;5065859;28;20025;-77
2022/11/26 06:56:04;;;;;;;29.05;14.73;;;4.80;99.90;;;;;;5065951;28;20025;-77
2022/11/26 06:58:30;;;;;;;26.20;13.00;;;4.80;99.90;;;;;;5064283;28;20039;-76
2022/11/26 07:00:56;;;;;;;26.65;13.27;;;5.00;99.90;;;;;;5070954;28;20024;-76
2022/11/26 07:03:23;;;;;;;29.48;13.10;;;4.90;99.90;;;;;;5070478;28;20024;-78
2022/11/26 07:05:49;;;;;;;16.83;11.40;;;5.00;99.90;;;;;;5070254;28;20028;-79
2022/11/26 07:08:15;;;;;;;22.42;11.57;;;5.00;99.90;;;;;;5069529;28;20032;-79
2022/11/26 07:10:41;;;;;;;18.10;11.48;;;4.90;99.90;;;;;;5069137;28;20048;-79
2022/11/26 07:13:07;;;;;;;20.35;11.52;;;4.90;99.90;;;;;;5067586;28;20460;-79
2022/11/26 07:15:33;;;;;;;23.65;10.52;;;4.90;99.90;;;;;;5068442;28;20115;-79
2022/11/26 07:17:58;;;;;;;22.17;13.68;;;4.90;99.90;;;;;;5074054;28;20023;-79
2022/11/26 07:20:25;;;;;;;1206.38;639.88;;;4.90;99.90;;;;;;5066462;28;20029;-80
2022/11/26 07:22:52;;;;;;;56.85;32.47;;;4.80;99.90;;;;;;5067375;28;20096;-80
2022/11/26 07:25:18;;;;;;;22.63;16.10;;;4.80;99.90;;;;;;5068705;28;20059;-79
2022/11/26 07:27:44;;;;;;;396.25;251.95;;;4.80;99.90;;;;;;5061488;28;20025;-80
2022/11/26 07:30:12;;;;;;;111.75;67.60;;;4.80;99.90;;;;;;5065278;28;20032;-81
2022/11/26 07:32:38;;;;;;;32.45;21.77;;;4.80;99.90;;;;;;5063780;28;20067;-79
2022/11/26 07:35:04;;;;;;;42.53;26.10;;;4.90;99.90;;;;;;5061720;28;20036;-78
2022/11/26 07:37:32;;;;;;;19.60;13.68;;;4.90;99.90;;;;;;5064478;28;20017;-79
2022/11/26 07:39:58;;;;;;;25.50;13.55;;;5.00;99.90;;;;;;5074071;28;20382;-79
2022/11/26 07:42:24;;;;;;;50.83;39.33;;;5.00;99.90;;;;;;5071256;28;20039;-78
2022/11/26 07:44:49;;;;;;;30.65;23.88;;;5.00;99.90;;;;;;5061871;28;20061;-79
2022/11/26 07:47:15;;;;;;;75.78;65.07;;;5.00;99.90;;;;;;5069094;28;20040;-79
2022/11/26 07:49:41;;;;;;;26.83;15.90;;;5.10;99.90;;;;;;5060945;28;20024;-79
2022/11/26 07:52:07;;;;;;;20.83;14.20;;;5.10;99.90;;;;;;5065060;28;20028;-79
2022/11/26 07:54:33;;;;;;;45.67;31.23;;;5.10;99.90;;;;;;5062886;28;20111;-79
2022/11/26 07:56:58;;;;;;;41.50;33.47;;;5.10;99.90;;;;;;5065084;28;20017;-79
2022/11/26 07:59:24;;;;;;;34.40;26.63;;;5.10;99.90;;;;;;5059441;28;20029;-79
2022/11/26 08:01:50;;;;;;;25.15;17.00;;;5.10;99.90;;;;;;5062667;28;20100;-80
2022/11/26 08:04:16;;;;;;;29.05;16.40;;;5.10;99.90;;;;;;5069319;28;20024;-80
2022/11/26 08:06:42;;;;;;;26.27;17.05;;;5.20;99.90;;;;;;5062686;28;20017;-80
2022/11/26 08:09:09;;;;;;;22.75;16.52;;;5.10;99.90;;;;;;5065990;28;20021;-80
2022/11/26 08:11:35;;;;;;;27.77;15.40;;;5.20;99.90;;;;;;5062196;28;20509;-79
2022/11/26 08:14:05;;;;;;;26.80;16.98;;;5.20;99.90;;;;;;5066705;28;20021;-79
2022/11/26 08:16:32;;;;;;;27.38;17.48;;;5.20;99.90;;;;;;5061374;28;20028;-79
2022/11/26 08:19:00;;;;;;;70.45;52.10;;;5.20;99.90;;;;;;5061235;28;20025;-79
2022/11/26 08:21:26;;;;;;;29.83;18.45;;;5.20;99.90;;;;;;5066556;28;20016;-79
2022/11/26 08:23:52;;;;;;;25.13;17.98;;;5.20;99.90;;;;;;5061121;28;20017;-79
2022/11/26 08:26:19;;;;;;;22.23;17.45;;;5.20;99.90;;;;;;5060581;28;20386;-79
2022/11/26 08:28:46;;;;;;;25.10;17.08;;;5.20;99.90;;;;;;5071571;28;20025;-79
2022/11/26 08:31:14;;;;;;;29.38;17.98;;;5.20;99.90;;;;;;5063626;28;20024;-79
2022/11/26 08:33:40;;;;;;;29.23;20.00;;;5.30;99.90;;;;;;5072084;28;20032;-79
2022/11/26 08:36:07;;;;;;;35.78;27.00;;;5.50;99.90;;;;;;5069377;28;20490;-79
2022/11/26 08:38:34;;;;;;;25.73;19.05;;;5.60;99.90;;;;;;5069020;28;20589;-79
2022/11/26 08:41:05;;;;;;;30.50;18.33;;;5.80;99.90;;;;;;5076486;28;20035;-79
2022/11/26 08:43:33;;;;;;;20.58;15.95;;;5.80;99.90;;;;;;5066113;28;20032;-79
2022/11/26 08:45:59;;;;;;;24.83;16.20;;;6.00;99.90;;;;;;5070200;28;20465;-78
2022/11/26 08:48:27;;;;;;;32.22;23.13;;;6.10;99.90;;;;;;5082478;28;20056;-78
2022/11/26 08:50:58;;;;;;;422.40;232.00;;;6.30;99.90;;;;;;5076621;28;20496;-79
2022/11/26 08:53:23;;;;;;;26.08;16.92;;;6.30;99.90;;;;;;5072771;28;20107;-79
2022/11/26 08:55:49;;;;;;;63.38;39.72;;;6.40;99.90;;;;;;5072475;28;20067;-79
2022/11/26 08:58:15;;;;;;;22.42;16.42;;;6.50;99.90;;;;;;5075631;28;20025;-79
2022/11/26 09:00:41;;;;;;;28.15;15.95;;;6.50;99.90;;;;;;5072681;28;20029;-79
2022/11/26 09:03:07;;;;;;;25.25;13.80;;;6.60;99.90;;;;;;5067470;28;20040;-79
2022/11/26 09:05:33;;;;;;;19.10;11.55;;;6.60;99.90;;;;;;5074744;28;20024;-80
2022/11/26 09:07:59;;;;;;;15.25;11.00;;;6.70;99.90;;;;;;5071235;28;20025;-79
2022/11/26 09:10:25;;;;;;;17.33;10.32;;;6.70;99.90;;;;;;5075065;28;20393;-79
2022/11/26 09:12:50;;;;;;;16.63;10.32;;;6.70;99.90;;;;;;5072694;28;20071;-79
2022/11/26 09:15:16;;;;;;;13.32;10.80;;;6.70;99.90;;;;;;5073352;28;20021;-79
2022/11/26 09:17:42;;;;;;;19.60;10.77;;;6.70;99.90;;;;;;5083072;28;20464;-79
2022/11/26 09:20:09;;;;;;;17.02;10.93;;;6.80;99.90;;;;;;5075935;28;20048;-79
2022/11/26 09:22:35;;;;;;;18.20;11.05;;;6.80;99.90;;;;;;5073809;28;20013;-79
2022/11/26 09:25:01;;;;;;;19.27;11.68;;;6.90;99.90;;;;;;5066519;28;20127;-79
2022/11/26 09:27:26;;;;;;;23.05;12.55;;;7.00;99.90;;;;;;5077598;28;20081;-79
2022/11/26 09:29:52;;;;;;;18.02;11.75;;;7.10;99.90;;;;;;5076286;28;20540;-79
2022/11/26 09:32:18;;;;;;;21.80;12.20;;;7.20;99.90;;;;;;5073716;28;20033;-80
2022/11/26 09:34:44;;;;;;;16.05;10.40;;;7.30;99.90;;;;;;5077060;28;20051;-79
2022/11/26 09:37:10;;;;;;;22.70;11.38;;;7.30;99.90;;;;;;5075584;28;20028;-80
2022/11/26 09:39:35;;;;;;;34.92;11.45;;;7.40;99.90;;;;;;5074565;28;20020;-80
2022/11/26 09:42:23;;;;;;;21.15;10.00;;;7.50;99.90;;;;;;5081751;28;20059;-80
2022/11/26 09:45:15;;;;;;;17.77;9.48;;;7.50;99.90;;;;;;5071555;28;20021;-79
2022/11/26 09:47:44;;;;;;;19.17;10.55;;;7.60;99.90;;;;;;5094644;28;20116;-80
2022/11/26 09:50:10;;;;;;;19.42;10.00;;;7.70;99.90;;;;;;5067785;28;20090;-79
2022/11/26 09:52:48;;;;;;;22.77;10.82;;;7.80;99.90;;;;;;5084908;28;20032;-80
2022/11/26 09:55:16;;;;;;;17.27;10.32;;;7.80;99.90;;;;;;5072815;28;20020;-79
2022/11/26 09:58:00;;;;;;;17.60;9.23;;;8.10;99.90;;;;;;5072599;28;20034;-79
2022/11/26 10:00:33;;;;;;;20.17;9.43;;;8.30;99.90;;;;;;5067598;28;20021;-79
2022/11/26 10:02:59;;;;;;;15.55;8.02;;;8.20;99.90;;;;;;5076693;28;20013;-81
2022/11/26 10:06:00;;;;;;;12.40;8.20;;;8.20;99.90;;;;;;5070675;28;20058;-81
2022/11/26 10:08:36;;;;;;;;;;;8.10;99.90;;;;;;5050881;28;20068;-80
2022/11/26 10:11:26;;;;;;;12.05;8.38;;;8.10;99.90;;;;;;5071749;28;19908;-81
2022/11/26 10:13:51;;;;;;;13.05;8.35;;;8.20;99.90;;;;;;5069773;28;20513;-80
2022/11/26 10:16:17;;;;;;;30.75;10.82;;;8.30;99.90;;;;;;5071111;28;20036;-80
2022/11/26 10:18:57;;;;;;;18.15;10.85;;;8.30;99.90;;;;;;5072356;28;20478;-80
2022/11/26 10:21:42;;;;;;;24.27;9.43;;;8.30;99.90;;;;;;5070094;28;20020;-81
2022/11/26 10:24:17;;;;;;;38.75;7.68;;;8.30;99.90;;;;;;5062639;28;20109;-80
2022/11/26 10:26:44;;;;;;;20.17;8.50;;;8.10;99.90;;;;;;5062185;28;20077;-81
2022/11/26 10:29:19;;;;;;;15.75;9.43;;;8.10;99.90;;;;;;5060032;28;20649;-80
2022/11/26 10:31:46;;;;;;;10.80;8.23;;;8.10;99.90;;;;;;5076007;28;20025;-80
2022/11/26 10:34:23;;;;;;;18.50;9.95;;;8.20;99.90;;;;;;5075523;28;20100;-79
2022/11/26 10:36:50;;;;;;;17.42;10.55;;;8.30;99.90;;;;;;5074996;28;20052;-79
2022/11/26 10:39:18;;;;;;;70.78;12.55;;;8.40;99.90;;;;;;5074969;28;20381;-79
2022/11/26 10:41:44;;;;;;;24.02;8.43;;;8.20;99.90;;;;;;5062693;28;20029;-78
2022/11/26 10:44:39;;;;;;;12.00;8.27;;;8.30;99.90;;;;;;5070041;28;20013;-79
2022/11/26 10:47:22;;;;;;;11.27;8.57;;;8.20;99.90;;;;;;5074474;28;20032;-78
2022/11/26 10:49:49;;;;;;;11.98;7.47;;;8.50;99.90;;;;;;5073441;28;20065;-80
2022/11/26 10:52:24;;;;;;;18.65;7.88;;;8.60;99.90;;;;;;5070803;28;20041;-80
2022/11/26 10:55:26;;;;;;;9.60;7.45;;;8.70;99.90;;;;;;5073269;28;20029;-79
2022/11/26 10:58:01;;;;;;;18.30;7.45;;;8.70;99.90;;;;;;5056029;28;20044;-81
2022/11/26 11:00:39;;;;;;;10.63;7.45;;;8.60;99.90;;;;;;5066326;28;20141;-80
2022/11/26 11:03:22;;;;;;;11.65;7.30;;;8.60;99.90;;;;;;5066873;28;20050;-80
2022/11/26 11:05:48;;;;;;;11.98;7.88;;;8.70;99.90;;;;;;5070548;28;20024;-80
2022/11/26 11:08:31;;;;;;;9.23;7.30;;;8.90;99.90;;;;;;5074347;28;20039;-81
2022/11/26 11:11:02;;;;;;;16.38;7.72;;;9.10;99.90;;;;;;5069882;28;20017;-80
2022/11/26 11:13:45;;;;;;;12.13;7.22;;;9.00;99.90;;;;;;5064108;28;20041;-80
2022/11/26 11:16:13;;;;;;;12.45;7.35;;;9.00;99.90;;;;;;5068902;28;20074;-80
2022/11/26 11:18:53;;;;;;;12.15;8.60;;;9.00;99.90;;;;;;5070826;28;20071;-81
2022/11/26 11:21:20;;;;;;;16.13;9.35;;;9.00;99.90;;;;;;5070037;28;20021;-80
2022/11/26 11:23:47;;;;;;;11.07;8.25;;;8.90;99.90;;;;;;5071146;28;20088;-80
2022/11/26 11:26:24;;;;;;;19.88;8.32;;;8.80;99.90;;;;;;5068798;28;20032;-80
2022/11/26 11:28:53;;;;;;;20.65;9.63;;;8.80;99.90;;;;;;5071626;28;20029;-80
2022/11/26 11:31:22;;;;;;;22.92;9.30;;;8.80;99.90;;;;;;5065202;28;20033;-80
2022/11/26 11:33:49;;;;;;;11.90;9.02;;;8.90;99.90;;;;;;5070420;28;20024;-80
2022/11/26 11:36:27;;;;;;;23.70;10.13;;;8.80;99.90;;;;;;5069236;28;20492;-80
2022/11/26 11:38:58;;;;;;;14.82;9.95;;;8.70;99.90;;;;;;5068714;28;20477;-80
2022/11/26 11:41:45;;;;;;;19.83;10.52;;;8.70;99.90;;;;;;5071429;28;20075;-80
2022/11/26 11:44:31;;;;;;;50.88;22.55;;;8.60;99.90;;;;;;5067976;28;20086;-80
2022/11/26 11:47:35;;;;;;;14.07;9.10;;;8.70;99.90;;;;;;5085893;28;20092;-80
2022/11/26 11:50:19;;;;;;;14.93;9.15;;;8.80;99.90;;;;;;5071309;28;20469;-80
2022/11/26 11:53:23;;;;;;;13.82;8.63;;;8.80;99.90;;;;;;5066628;28;20063;-80
2022/11/26 11:56:17;;;;;;;14.80;8.63;;;9.00;99.90;;;;;;5063760;28;20029;-81
2022/11/26 11:59:02;;;;;;;19.63;10.00;;;8.90;99.90;;;;;;5057657;28;20389;-80
2022/11/26 12:01:51;;;;;;;16.42;9.05;;;8.90;99.90;;;;;;5084824;28;20029;-80
2022/11/26 12:04:41;;;;;;;16.42;9.38;;;8.80;99.90;;;;;;5068058;28;20094;-81
2022/11/26 12:07:13;;;;;;;14.43;9.95;;;9.00;99.90;;;;;;5063711;28;20497;-80
2022/11/26 12:09:49;;;;;;;10.43;8.32;;;9.10;99.90;;;;;;5069178;28;20405;-81
2022/11/26 12:12:23;;;;;;;14.88;8.65;;;9.10;99.90;;;;;;5069739;28;20033;-80
2022/11/26 12:15:01;;;;;;;19.15;9.90;;;9.00;99.90;;;;;;5065422;28;20032;-80
2022/11/26 12:17:35;;;;;;;18.05;10.07;;;9.00;99.90;;;;;;5071948;28;20021;-80
2022/11/26 12:20:27;;;;;;;14.75;8.77;;;9.10;99.90;;;;;;5065605;28;20028;-80
2022/11/26 12:23:00;;;;;;;13.82;9.50;;;9.20;99.90;;;;;;5063199;28;20044;-80
2022/11/26 12:25:34;;;;;;;13.95;9.45;;;9.30;99.90;;;;;;5065202;28;20040;-80
2022/11/26 12:28:05;;;;;;;12.07;8.55;;;9.30;99.90;;;;;;5074413;28;20481;-80
2022/11/26 12:30:53;;;;;;;;;;;9.40;99.90;;;;;;5074463;28;20056;-80
2022/11/26 12:33:40;;;;;;;14.38;9.27;;;9.30;99.90;;;;;;5065806;28;19908;-81
2022/11/26 12:36:44;;;;;;;11.32;8.15;;;9.30;99.90;;;;;;5059051;28;20037;-81
2022/11/26 12:39:17;;;;;;;16.27;10.13;;;9.50;99.90;;;;;;5060950;28;20029;-81
2022/11/26 12:42:03;;;;;;;17.33;9.65;;;9.60;99.90;;;;;;5072770;28;20025;-81
2022/11/26 12:44:45;;;;;;;18.38;10.02;;;9.70;99.90;;;;;;5070745;28;20025;-82
2022/11/26 12:47:31;;;;;;;14.98;8.98;;;9.80;99.90;;;;;;5065240;28;20469;-81
2022/11/26 12:50:38;;;;;;;14.05;8.50;;;9.70;99.90;;;;;;5059781;28;20016;-81
2022/11/26 12:53:12;;;;;;;16.27;9.07;;;9.70;99.90;;;;;;5065257;28;20104;-81
2022/11/26 12:55:43;;;;;;;13.18;8.05;;;9.70;99.90;;;;;;5058829;28;20034;-81
2022/11/26 12:58:15;;;;;;;14.13;10.07;;;9.80;99.90;;;;;;5085990;28;20028;-81
2022/11/26 13:00:41;;;;;;;20.00;11.93;;;9.90;99.90;;;;;;5060532;28;20021;-81